Time;durP1;ratioP1;P1;durP2;ratioP2;P2;SDS_P1;SDS_P2;PMS_P1;PMS_P2;Temp;Humidity;BMP_temperature;BMP_pressure;BME280_temperature;BME280_humidity;BME280_pressure;Samples;Min_cycle;Max_cycle;Signal;HPM_P1;HPM_P2
2023/06/04 00:01:45;;;;;;;3.47;1.80;;;18.90;67.00;;;;;;5117708;28;20495;-83
2023/06/04 00:04:11;;;;;;;6.13;2.08;;;18.90;67.00;;;;;;5116038;28;20027;-82
2023/06/04 00:06:36;;;;;;;3.55;1.90;;;18.80;67.00;;;;;;5117498;28;20023;-83
2023/06/04 00:09:02;;;;;;;4.40;1.95;;;18.80;67.00;;;;;;5116025;28;20027;-82
2023/06/04 00:11:27;;;;;;;3.40;2.00;;;18.70;67.00;;;;;;5116219;28;20479;-83
2023/06/04 00:13:53;;;;;;;4.90;1.90;;;18.70;67.10;;;;;;5115988;28;20027;-83
2023/06/04 00:16:19;;;;;;;4.55;1.70;;;18.70;67.20;;;;;;5115857;28;20073;-83
2023/06/04 00:18:44;;;;;;;4.95;2.10;;;18.60;67.20;;;;;;5117391;28;20448;-83
2023/06/04 00:21:10;;;;;;;5.57;2.20;;;18.60;67.10;;;;;;5115854;28;20392;-83
2023/06/04 00:23:35;;;;;;;4.60;1.98;;;18.50;67.20;;;;;;5116056;28;20019;-83
2023/06/04 00:26:01;;;;;;;3.17;2.15;;;18.50;67.10;;;;;;5115377;28;20106;-82
2023/06/04 00:28:26;;;;;;;7.15;2.67;;;18.50;67.20;;;;;;5116512;28;20024;-83
2023/06/04 00:30:52;;;;;;;6.45;3.22;;;18.40;68.00;;;;;;5116015;28;20053;-82
2023/06/04 00:33:18;;;;;;;7.68;2.60;;;18.40;67.30;;;;;;5115284;28;20475;-82
2023/06/04 00:35:43;;;;;;;3.80;1.88;;;18.30;67.50;;;;;;5115834;28;20107;-82
2023/06/04 00:38:10;;;;;;;5.75;1.60;;;18.30;67.50;;;;;;5116342;28;20457;-82
2023/06/04 00:40:35;;;;;;;4.05;1.83;;;18.30;67.30;;;;;;5115298;28;20055;-82
2023/06/04 00:43:01;;;;;;;3.45;1.88;;;18.20;67.40;;;;;;5116258;28;20024;-82
2023/06/04 00:45:26;;;;;;;4.78;1.92;;;18.20;67.30;;;;;;5116606;28;20020;-82
2023/06/04 00:47:53;;;;;;;8.15;1.98;;;18.10;67.30;;;;;;5116572;28;20023;-82
2023/06/04 00:50:20;;;;;;;6.97;1.60;;;18.20;66.90;;;;;;5115762;28;20094;-82
2023/06/04 00:52:47;;;;;;;5.20;2.03;;;18.10;66.90;;;;;;5115141;28;20118;-82
2023/06/04 00:55:12;;;;;;;3.60;2.00;;;18.10;66.90;;;;;;5114742;28;20023;-82
2023/06/04 00:57:38;;;;;;;5.03;1.60;;;18.10;66.60;;;;;;5115435;28;20115;-82
2023/06/04 01:00:06;;;;;;;3.55;1.50;;;18.10;66.50;;;;;;5115028;28;20035;-83
2023/06/04 01:02:35;;;;;;;3.25;1.50;;;18.00;66.30;;;;;;5116098;28;20118;-82
2023/06/04 01:05:16;;;;;;;3.35;1.77;;;17.90;66.40;;;;;;5115029;28;20034;-82
2023/06/04 01:07:46;;;;;;;3.05;1.65;;;17.90;66.10;;;;;;5115236;28;20031;-82
2023/06/04 01:10:12;;;;;;;2.72;1.63;;;17.90;65.90;;;;;;5114404;28;20126;-82
2023/06/04 01:12:42;;;;;;;5.35;1.42;;;17.90;66.00;;;;;;5115252;28;20411;-82
2023/06/04 01:15:09;;;;;;;2.95;1.50;;;17.90;65.80;;;;;;5114497;28;20031;-82
2023/06/04 01:17:43;;;;;;;3.42;1.75;;;17.80;65.80;;;;;;5114788;28;20035;-82
2023/06/04 01:20:32;;;;;;;4.30;1.30;;;17.80;66.00;;;;;;5115433;28;20030;-82
2023/06/04 01:23:23;;;;;;;3.33;1.38;;;17.80;66.10;;;;;;5114995;28;20039;-83
2023/06/04 01:25:50;;;;;;;2.73;1.50;;;17.70;66.10;;;;;;5113959;28;20032;-83
2023/06/04 01:28:16;;;;;;;3.08;1.50;;;17.70;65.90;;;;;;5114130;28;20027;-83
2023/06/04 01:30:45;;;;;;;2.78;1.58;;;17.80;65.80;;;;;;5114654;28;20123;-82
2023/06/04 01:33:12;;;;;;;3.53;1.63;;;17.70;65.80;;;;;;5115067;28;20020;-83
2023/06/04 01:35:38;;;;;;;3.25;1.50;;;17.60;65.80;;;;;;5114624;28;20023;-82
2023/06/04 01:38:04;;;;;;;3.92;1.30;;;17.60;66.00;;;;;;5114294;28;20481;-83
2023/06/04 01:40:30;;;;;;;3.47;1.67;;;17.50;65.80;;;;;;5114119;28;20062;-83
2023/06/04 01:42:56;;;;;;;5.75;1.55;;;17.40;65.80;;;;;;5115737;28;20067;-82
2023/06/04 01:45:22;;;;;;;3.50;1.30;;;17.40;66.00;;;;;;5114214;28;20023;-82
2023/06/04 01:47:48;;;;;;;3.70;1.50;;;17.30;65.80;;;;;;5115184;28;20027;-82
2023/06/04 01:50:14;;;;;;;2.17;1.30;;;17.20;65.90;;;;;;5113601;28;20020;-82
2023/06/04 01:52:40;;;;;;;3.03;1.17;;;17.20;66.00;;;;;;5113929;28;20028;-81
2023/06/04 01:55:07;;;;;;;4.47;1.38;;;17.20;66.10;;;;;;5113567;28;20049;-83
2023/06/04 01:57:36;;;;;;;4.80;1.48;;;17.20;66.10;;;;;;5113843;28;20032;-82
2023/06/04 02:00:03;;;;;;;4.50;1.45;;;17.10;66.00;;;;;;5113678;28;20023;-82
2023/06/04 02:02:29;;;;;;;3.40;1.45;;;17.10;66.00;;;;;;5114031;28;20031;-83
2023/06/04 02:04:55;;;;;;;1.40;1.10;;;17.00;66.20;;;;;;5114040;28;20488;-83
2023/06/04 02:07:20;;;;;;;2.28;1.15;;;17.00;66.00;;;;;;5113345;28;20324;-83
2023/06/04 02:09:49;;;;;;;7.10;1.38;;;17.00;66.20;;;;;;5115105;28;20074;-82
2023/06/04 02:12:15;;;;;;;2.92;1.30;;;16.90;66.00;;;;;;5113281;28;20047;-82
2023/06/04 02:14:42;;;;;;;2.90;1.08;;;16.90;65.90;;;;;;5113752;28;20030;-83
2023/06/04 02:17:16;;;;;;;3.80;1.25;;;16.80;65.60;;;;;;5113366;28;20030;-82
2023/06/04 02:19:44;;;;;;;3.83;1.20;;;16.80;65.60;;;;;;5114869;28;20055;-82
2023/06/04 02:22:11;;;;;;;2.75;1.20;;;16.80;65.90;;;;;;5113550;28;20028;-81
2023/06/04 02:24:38;;;;;;;1.65;0.90;;;16.80;66.00;;;;;;5113894;28;20028;-79
2023/06/04 02:27:05;;;;;;;2.50;1.00;;;16.80;65.90;;;;;;5113151;28;20023;-81
2023/06/04 02:29:31;;;;;;;3.00;1.20;;;16.70;65.60;;;;;;5113459;28;20026;-79
2023/06/04 02:31:56;;;;;;;3.22;0.95;;;16.70;65.40;;;;;;5113327;28;20019;-78
2023/06/04 02:34:23;;;;;;;2.70;0.88;;;16.60;65.80;;;;;;5109354;28;20318;-79
2023/06/04 02:36:50;;;;;;;2.92;0.93;;;16.60;65.80;;;;;;5101817;28;20020;-79
2023/06/04 02:39:17;;;;;;;2.67;1.00;;;16.60;66.00;;;;;;5100659;28;20024;-79
2023/06/04 02:41:42;;;;;;;2.65;0.85;;;16.60;65.80;;;;;;5103856;28;20079;-79
2023/06/04 02:44:08;;;;;;;4.47;0.98;;;16.60;65.70;;;;;;5101502;28;20456;-79
2023/06/04 02:46:33;;;;;;;2.38;0.93;;;16.70;65.80;;;;;;5098251;28;20021;-79
2023/06/04 02:48:59;;;;;;;2.85;0.80;;;16.60;65.80;;;;;;5102278;28;20096;-79
2023/06/04 02:51:25;;;;;;;3.08;0.90;;;16.50;65.80;;;;;;5101252;28;20480;-79
2023/06/04 02:53:50;;;;;;;2.03;0.98;;;16.50;66.00;;;;;;5105671;28;20055;-78
2023/06/04 02:56:16;;;;;;;1.80;1.05;;;16.50;66.10;;;;;;5101864;28;20017;-79
2023/06/04 02:58:53;;;;;;;2.38;0.85;;;16.60;66.10;;;;;;5104211;28;20068;-79
2023/06/04 03:01:20;;;;;;;1.77;0.90;;;16.60;66.20;;;;;;5102239;28;20137;-78
2023/06/04 03:03:46;;;;;;;2.92;1.05;;;16.60;66.50;;;;;;5104452;28;20031;-79
2023/06/04 03:06:14;;;;;;;2.22;0.93;;;16.60;67.00;;;;;;5103913;28;20077;-81
2023/06/04 03:08:40;;;;;;;1.52;0.93;;;16.50;67.50;;;;;;5102980;28;20020;-79
2023/06/04 03:11:06;;;;;;;0.95;0.70;;;16.40;67.70;;;;;;5103808;28;20370;-84
2023/06/04 03:13:32;;;;;;;5.55;0.95;;;16.50;67.90;;;;;;5108482;28;20031;-79
2023/06/04 03:16:00;;;;;;;5.13;1.38;;;16.40;68.00;;;;;;5102643;28;20024;-79
2023/06/04 03:18:26;;;;;;;3.80;1.10;;;16.40;68.20;;;;;;5104556;28;20030;-78
2023/06/04 03:20:53;;;;;;;2.42;1.10;;;16.40;68.50;;;;;;5103106;28;20630;-79
2023/06/04 03:23:19;;;;;;;2.70;1.20;;;16.40;68.80;;;;;;5101823;28;20046;-79
2023/06/04 03:25:45;;;;;;;3.42;1.00;;;16.40;69.10;;;;;;5104078;28;20077;-79
2023/06/04 03:28:10;;;;;;;3.83;1.23;;;16.40;69.30;;;;;;5101315;28;20024;-79
2023/06/04 03:30:36;;;;;;;2.80;1.00;;;16.30;69.40;;;;;;5103267;28;20456;-79
2023/06/04 03:33:02;;;;;;;1.92;1.10;;;16.30;70.00;;;;;;5102707;28;20027;-79
2023/06/04 03:35:28;;;;;;;3.55;1.05;;;16.20;70.40;;;;;;5103344;28;20032;-79
2023/06/04 03:37:53;;;;;;;3.55;0.90;;;16.20;70.70;;;;;;5102271;28;20019;-80
2023/06/04 03:40:19;;;;;;;1.23;1.08;;;16.20;71.00;;;;;;5099873;28;20045;-79
2023/06/04 03:42:45;;;;;;;8.82;1.63;;;16.20;71.20;;;;;;5102401;28;20034;-78
2023/06/04 03:45:11;;;;;;;2.47;1.15;;;16.10;71.40;;;;;;5100696;28;20031;-78
2023/06/04 03:47:38;;;;;;;1.98;1.20;;;16.10;71.40;;;;;;5100630;28;20020;-78
2023/06/04 03:50:05;;;;;;;4.57;1.05;;;16.00;71.40;;;;;;5106696;28;20028;-78
2023/06/04 03:52:31;;;;;;;2.97;1.00;;;16.00;71.60;;;;;;5106935;28;20026;-79
2023/06/04 03:54:57;;;;;;;3.20;1.20;;;15.90;71.90;;;;;;5104345;28;20016;-79
2023/06/04 03:57:22;;;;;;;3.40;0.98;;;16.00;72.20;;;;;;5104327;28;20103;-78
2023/06/04 03:59:48;;;;;;;3.10;1.20;;;16.00;71.90;;;;;;5103286;28;20035;-78
2023/06/04 04:02:14;;;;;;;3.40;1.33;;;16.00;72.00;;;;;;5107587;28;20535;-79
2023/06/04 04:04:40;;;;;;;2.80;1.48;;;15.90;71.80;;;;;;5103897;28;20464;-78
2023/06/04 04:07:05;;;;;;;2.35;0.80;;;15.90;71.90;;;;;;5105585;28;20016;-78
2023/06/04 04:09:31;;;;;;;1.90;1.05;;;15.90;71.80;;;;;;5104205;28;20479;-78
2023/06/04 04:11:57;;;;;;;4.43;1.52;;;15.90;72.30;;;;;;5114184;28;20032;-79
2023/06/04 04:14:22;;;;;;;1.60;0.93;;;15.80;72.10;;;;;;5116612;28;20030;-79
2023/06/04 04:16:48;;;;;;;1.63;0.90;;;15.80;72.10;;;;;;5117011;28;20023;-78
2023/06/04 04:19:14;;;;;;;3.10;1.15;;;15.80;72.30;;;;;;5116368;28;20024;-79
2023/06/04 04:21:39;;;;;;;2.35;0.90;;;15.80;72.20;;;;;;5116665;28;20027;-79
2023/06/04 04:24:05;;;;;;;5.68;1.15;;;15.90;71.80;;;;;;5115500;28;20535;-79
2023/06/04 04:26:31;;;;;;;1.83;0.95;;;15.80;72.10;;;;;;5115291;28;20028;-78
2023/06/04 04:28:57;;;;;;;3.10;1.00;;;15.80;72.10;;;;;;5116762;28;20027;-78
2023/06/04 04:31:23;;;;;;;2.72;1.17;;;15.80;72.10;;;;;;5115069;28;20038;-78
2023/06/04 04:33:50;;;;;;;5.38;1.00;;;15.80;72.10;;;;;;5115553;28;20023;-78
2023/06/04 04:36:18;;;;;;;1.70;0.90;;;15.70;72.30;;;;;;5114945;28;20110;-79
2023/06/04 04:38:44;;;;;;;4.15;1.02;;;15.80;72.70;;;;;;5116318;28;20072;-79
2023/06/04 04:41:11;;;;;;;3.97;1.00;;;15.80;73.20;;;;;;5115017;28;20408;-78
2023/06/04 04:43:39;;;;;;;1.80;0.80;;;15.80;72.90;;;;;;5115251;28;20020;-79
2023/06/04 04:46:05;;;;;;;3.67;1.13;;;15.80;72.50;;;;;;5115185;28;20031;-78
2023/06/04 04:48:31;;;;;;;2.00;0.90;;;15.80;72.30;;;;;;5114874;28;20414;-78
2023/06/04 04:50:57;;;;;;;2.03;1.00;;;15.90;72.20;;;;;;5115780;28;20434;-78
2023/06/04 04:53:22;;;;;;;3.50;1.13;;;15.90;72.10;;;;;;5114986;28;20032;-79
2023/06/04 04:55:48;;;;;;;2.20;1.10;;;15.90;72.10;;;;;;5115946;28;20073;-79
2023/06/04 04:58:14;;;;;;;1.83;0.90;;;15.90;72.20;;;;;;5115967;28;20523;-79
2023/06/04 05:00:40;;;;;;;2.80;0.95;;;15.90;72.20;;;;;;5115783;28;20044;-79
2023/06/04 05:03:06;;;;;;;1.85;0.88;;;15.80;72.40;;;;;;5116201;28;20066;-78
2023/06/04 05:05:33;;;;;;;1.83;0.73;;;15.80;72.30;;;;;;5115259;28;20354;-78
2023/06/04 05:07:58;;;;;;;1.50;1.00;;;15.80;72.60;;;;;;5114735;28;20019;-78
2023/06/04 05:10:24;;;;;;;2.45;0.93;;;15.90;72.40;;;;;;5115117;28;20471;-79
2023/06/04 05:12:54;;;;;;;1.63;0.80;;;15.90;72.50;;;;;;5115501;28;20023;-78
2023/06/04 05:15:20;;;;;;;4.10;0.80;;;15.90;72.60;;;;;;5114954;28;20053;-79
2023/06/04 05:17:46;;;;;;;1.52;0.82;;;15.90;72.40;;;;;;5114381;28;20453;-78
2023/06/04 05:20:13;;;;;;;2.50;1.00;;;16.00;72.90;;;;;;5115465;28;20020;-79
2023/06/04 05:22:39;;;;;;;2.88;0.95;;;16.00;72.50;;;;;;5115099;28;20032;-79
2023/06/04 05:25:08;;;;;;;5.00;1.10;;;16.00;72.10;;;;;;5114447;28;20407;-78
2023/06/04 05:27:35;;;;;;;3.50;0.80;;;16.00;72.00;;;;;;5114857;28;20023;-78
2023/06/04 05:30:02;;;;;;;1.15;0.70;;;16.10;70.90;;;;;;5114472;28;20070;-78
2023/06/04 05:32:28;;;;;;;3.25;0.80;;;16.10;69.80;;;;;;5115215;28;20027;-78
2023/06/04 05:34:57;;;;;;;2.47;0.52;;;16.10;69.80;;;;;;5115935;28;20048;-78
2023/06/04 05:37:23;;;;;;;3.60;0.90;;;16.20;68.60;;;;;;5113626;28;20198;-78
2023/06/04 05:39:50;;;;;;;3.20;1.10;;;16.30;68.90;;;;;;5115295;28;20099;-78
2023/06/04 05:42:15;;;;;;;1.02;0.60;;;16.30;67.70;;;;;;5114572;28;20054;-79
2023/06/04 05:44:41;;;;;;;0.95;0.60;;;16.30;67.90;;;;;;5114085;28;20111;-78
2023/06/04 05:47:07;;;;;;;2.85;0.70;;;16.40;68.40;;;;;;5114285;28;20028;-78
2023/06/04 05:49:34;;;;;;;1.35;0.68;;;16.40;68.40;;;;;;5113685;28;20053;-79
2023/06/04 05:52:00;;;;;;;3.75;0.90;;;16.40;67.80;;;;;;5115110;28;20039;-78
2023/06/04 05:54:26;;;;;;;1.50;0.60;;;16.50;67.70;;;;;;5114474;28;20384;-78
2023/06/04 05:56:52;;;;;;;1.80;0.90;;;16.50;66.80;;;;;;5114583;28;20030;-78
2023/06/04 05:59:17;;;;;;;2.53;0.90;;;16.50;67.70;;;;;;5113151;28;20020;-79
2023/06/04 06:01:43;;;;;;;2.13;0.80;;;16.50;66.90;;;;;;5113611;28;20369;-78
2023/06/04 06:04:09;;;;;;;1.90;0.73;;;16.50;67.60;;;;;;5113754;28;20073;-78
2023/06/04 06:06:35;;;;;;;2.60;0.73;;;16.60;66.80;;;;;;5114063;28;20095;-79
2023/06/04 06:09:01;;;;;;;0.80;0.70;;;16.70;66.60;;;;;;5112940;28;20019;-79
2023/06/04 06:11:27;;;;;;;2.20;0.88;;;16.70;66.60;;;;;;5112338;28;20036;-79
2023/06/04 06:13:53;;;;;;;1.77;1.00;;;16.70;67.00;;;;;;5114101;28;20114;-79
2023/06/04 06:16:18;;;;;;;3.08;0.60;;;16.70;66.80;;;;;;5113963;28;20055;-79
2023/06/04 06:18:44;;;;;;;1.17;0.68;;;16.80;66.50;;;;;;5115114;28;20076;-79
2023/06/04 06:21:10;;;;;;;1.65;0.77;;;16.80;66.50;;;;;;5114857;28;20040;-79
2023/06/04 06:23:35;;;;;;;1.75;0.68;;;16.80;65.40;;;;;;5114295;28;20079;-78
2023/06/04 06:26:03;;;;;;;1.27;0.70;;;16.80;65.70;;;;;;5114675;28;20023;-78
2023/06/04 06:28:28;;;;;;;1.42;0.88;;;16.90;65.10;;;;;;5115426;28;20028;-79
2023/06/04 06:30:54;;;;;;;2.75;0.82;;;16.90;65.20;;;;;;5115199;28;20035;-78
2023/06/04 06:33:21;;;;;;;1.48;0.80;;;17.00;66.00;;;;;;5115265;28;20436;-79
2023/06/04 06:35:47;;;;;;;1.38;0.70;;;17.00;65.60;;;;;;5114652;28;20508;-78
2023/06/04 06:38:13;;;;;;;2.85;0.68;;;17.00;64.80;;;;;;5113763;28;20031;-78
2023/06/04 06:40:40;;;;;;;2.58;1.02;;;17.00;65.50;;;;;;5112727;28;20507;-79
2023/06/04 06:43:06;;;;;;;1.63;0.80;;;17.00;65.10;;;;;;5114079;28;20024;-78
2023/06/04 06:45:31;;;;;;;1.58;0.82;;;17.00;64.60;;;;;;5113828;28;20024;-78
2023/06/04 06:47:57;;;;;;;2.22;0.98;;;17.10;64.90;;;;;;5114421;28;20030;-79
2023/06/04 06:50:22;;;;;;;2.42;1.00;;;17.10;65.60;;;;;;5112929;28;20054;-79
2023/06/04 06:52:49;;;;;;;2.25;0.70;;;17.20;66.30;;;;;;5113288;28;20028;-79
2023/06/04 06:55:15;;;;;;;3.22;0.63;;;17.20;65.70;;;;;;5115274;28;20023;-79
2023/06/04 06:57:40;;;;;;;4.57;0.80;;;17.20;65.60;;;;;;5115615;28;20089;-79
2023/06/04 07:00:07;;;;;;;2.10;0.63;;;17.30;65.80;;;;;;5113549;28;20056;-78
2023/06/04 07:02:32;;;;;;;2.25;1.00;;;17.30;65.10;;;;;;5113103;28;20034;-78
2023/06/04 07:04:58;;;;;;;4.00;1.00;;;17.30;65.30;;;;;;5113781;28;20031;-78
2023/06/04 07:07:23;;;;;;;3.00;0.70;;;17.40;65.10;;;;;;5113790;28;20357;-78
2023/06/04 07:09:50;;;;;;;3.30;0.90;;;17.40;65.10;;;;;;5112944;28;20051;-78
2023/06/04 07:12:15;;;;;;;2.63;0.60;;;17.50;64.80;;;;;;5117519;28;20042;-78
2023/06/04 07:14:42;;;;;;;6.35;0.90;;;17.50;65.20;;;;;;5119975;28;20051;-77
2023/06/04 07:17:07;;;;;;;2.00;0.70;;;17.50;64.20;;;;;;5113927;28;20082;-78
2023/06/04 07:19:33;;;;;;;1.63;0.90;;;17.60;63.90;;;;;;5112451;28;20027;-78
2023/06/04 07:21:58;;;;;;;1.67;0.85;;;17.60;64.30;;;;;;5112497;28;20454;-78
2023/06/04 07:24:24;;;;;;;1.40;0.75;;;17.70;65.00;;;;;;5114841;28;20031;-78
2023/06/04 07:26:50;;;;;;;1.15;0.60;;;17.70;64.80;;;;;;5116275;28;20019;-78
2023/06/04 07:29:16;;;;;;;1.38;0.73;;;17.80;64.60;;;;;;5117566;28;20019;-78
2023/06/04 07:31:41;;;;;;;1.90;0.73;;;17.80;63.80;;;;;;5116774;28;20027;-78
2023/06/04 07:34:07;;;;;;;2.35;1.10;;;17.80;64.30;;;;;;5116517;28;20452;-78
2023/06/04 07:36:33;;;;;;;2.10;0.88;;;17.90;63.80;;;;;;5116802;28;20043;-77
2023/06/04 07:38:59;;;;;;;3.45;0.85;;;17.90;63.90;;;;;;5116295;28;20475;-77
2023/06/04 07:41:26;;;;;;;2.63;0.98;;;18.00;64.40;;;;;;5116565;28;20048;-78
2023/06/04 07:43:51;;;;;;;1.10;0.90;;;18.00;64.60;;;;;;5117291;28;20019;-77
2023/06/04 07:46:18;;;;;;;2.15;0.70;;;18.00;64.50;;;;;;5116264;28;20119;-77
2023/06/04 07:48:45;;;;;;;1.83;1.02;;;18.10;63.50;;;;;;5116411;28;20130;-78
2023/06/04 07:51:11;;;;;;;2.53;0.82;;;18.10;64.00;;;;;;5115521;28;20035;-78
2023/06/04 07:53:37;;;;;;;1.98;0.98;;;18.10;63.90;;;;;;5115415;28;20093;-78
2023/06/04 07:56:03;;;;;;;4.07;1.38;;;18.20;63.30;;;;;;5115781;28;20451;-78
2023/06/04 07:58:29;;;;;;;1.80;1.23;;;18.20;63.50;;;;;;5115056;28;20030;-78
2023/06/04 08:00:55;;;;;;;2.10;0.90;;;18.30;63.50;;;;;;5115750;28;20130;-77
2023/06/04 08:03:21;;;;;;;2.05;1.00;;;18.30;64.00;;;;;;5115890;28;20035;-77
2023/06/04 08:05:47;;;;;;;1.50;0.98;;;18.40;64.30;;;;;;5116669;28;20086;-77
2023/06/04 08:08:12;;;;;;;1.58;0.88;;;18.40;64.20;;;;;;5115851;28;20464;-77
2023/06/04 08:10:41;;;;;;;3.15;0.85;;;18.50;64.40;;;;;;5116700;28;20032;-78
2023/06/04 08:13:08;;;;;;;3.13;1.00;;;18.60;64.50;;;;;;5115734;28;20418;-78
2023/06/04 08:15:34;;;;;;;1.15;0.80;;;18.60;64.70;;;;;;5116668;28;20031;-78
2023/06/04 08:17:59;;;;;;;3.15;1.08;;;18.70;64.80;;;;;;5115791;28;20020;-78
2023/06/04 08:20:25;;;;;;;3.90;1.05;;;18.70;64.60;;;;;;5115073;28;20055;-79
2023/06/04 08:22:51;;;;;;;1.42;0.82;;;18.70;64.30;;;;;;5115505;28;20465;-78
2023/06/04 08:25:17;;;;;;;1.15;0.70;;;18.80;63.50;;;;;;5116391;28;20028;-78
2023/06/04 08:27:42;;;;;;;2.65;0.95;;;18.80;63.80;;;;;;5115192;28;20118;-78
2023/06/04 08:30:09;;;;;;;2.60;0.80;;;18.90;64.00;;;;;;5115368;28;20536;-78
2023/06/04 08:32:34;;;;;;;3.25;0.93;;;18.90;64.50;;;;;;5114958;28;20055;-78
2023/06/04 08:35:00;;;;;;;1.65;0.77;;;18.90;64.30;;;;;;5115062;28;20477;-78
2023/06/04 08:37:26;;;;;;;2.65;1.10;;;19.00;64.50;;;;;;5115895;28;20031;-79
2023/06/04 08:39:52;;;;;;;1.65;0.98;;;19.00;63.80;;;;;;5114957;28;20023;-78
2023/06/04 08:42:34;;;;;;;3.83;0.85;;;19.10;64.90;;;;;;5116009;28;20096;-78
2023/06/04 08:45:00;;;;;;;2.58;0.98;;;19.20;65.20;;;;;;5115043;28;20027;-78
2023/06/04 08:47:28;;;;;;;2.92;1.10;;;19.20;63.30;;;;;;5116091;28;20460;-80
2023/06/04 08:50:00;;;;;;;2.50;1.02;;;19.20;63.10;;;;;;5114986;28;20094;-78
2023/06/04 08:52:26;;;;;;;2.08;1.02;;;19.30;63.40;;;;;;5115502;28;20111;-82
2023/06/04 08:54:53;;;;;;;3.13;0.90;;;19.30;64.50;;;;;;5108455;28;20464;-79
2023/06/04 08:57:19;;;;;;;2.28;0.80;;;19.40;63.80;;;;;;5103508;28;20043;-78
2023/06/04 08:59:48;;;;;;;5.82;1.20;;;19.50;63.10;;;;;;5106930;28;20449;-78
2023/06/04 09:02:17;;;;;;;4.22;1.17;;;19.50;63.40;;;;;;5102999;28;20032;-78
2023/06/04 09:04:44;;;;;;;3.13;1.23;;;19.60;64.70;;;;;;5104891;28;20054;-78
2023/06/04 09:07:12;;;;;;;4.35;1.20;;;19.60;64.90;;;;;;5102451;28;20030;-77
2023/06/04 09:09:40;;;;;;;2.95;1.10;;;19.70;65.10;;;;;;5113626;28;20031;-77
2023/06/04 09:12:14;;;;;;;1.60;0.95;;;19.70;65.00;;;;;;5114319;28;20542;-79
2023/06/04 09:14:40;;;;;;;2.35;1.35;;;19.80;65.00;;;;;;5115244;28;20031;-78
2023/06/04 09:17:06;;;;;;;2.75;1.40;;;19.90;63.70;;;;;;5116069;28;20019;-80
2023/06/04 09:19:31;;;;;;;2.47;1.48;;;19.90;63.20;;;;;;5110515;28;20035;-78
2023/06/04 09:21:58;;;;;;;2.80;1.40;;;20.00;64.60;;;;;;5104739;28;20027;-78
2023/06/04 09:24:38;;;;;;;4.25;1.35;;;20.00;64.00;;;;;;5104710;28;20458;-79
2023/06/04 09:27:13;;;;;;;3.40;1.48;;;20.10;64.50;;;;;;5103292;28;20032;-78
2023/06/04 09:29:40;;;;;;;3.47;1.10;;;20.20;63.00;;;;;;5102950;28;20124;-78
2023/06/04 09:32:05;;;;;;;3.63;1.35;;;20.30;62.90;;;;;;5109773;28;20106;-78
2023/06/04 09:34:31;;;;;;;2.30;1.23;;;20.30;62.70;;;;;;5113287;28;20047;-79
2023/06/04 09:36:58;;;;;;;3.33;1.00;;;20.30;62.90;;;;;;5115097;28;20098;-79
2023/06/04 09:39:24;;;;;;;2.38;1.20;;;20.40;62.50;;;;;;5112144;27;20038;-78
2023/06/04 09:42:03;;;;;;;2.97;1.20;;;20.40;62.70;;;;;;5112009;28;20043;-79
2023/06/04 09:44:29;;;;;;;5.47;1.40;;;20.40;62.00;;;;;;5110962;28;20019;-83
2023/06/04 09:46:58;;;;;;;2.90;1.35;;;20.50;62.20;;;;;;5112453;28;20072;-77
2023/06/04 09:49:24;;;;;;;1.80;1.05;;;20.60;61.10;;;;;;5101620;28;20036;-74
2023/06/04 09:51:50;;;;;;;2.33;1.30;;;20.70;61.30;;;;;;5107548;28;20032;-75
2023/06/04 09:54:16;;;;;;;2.53;1.10;;;20.70;61.40;;;;;;5112551;28;20051;-76
2023/06/04 09:56:42;;;;;;;2.08;1.20;;;20.80;60.70;;;;;;5111768;28;20058;-76
2023/06/04 09:59:09;;;;;;;2.53;1.20;;;20.80;61.20;;;;;;5113189;28;20380;-76
2023/06/04 10:01:39;;;;;;;2.45;0.85;;;20.90;61.20;;;;;;5113119;28;20127;-77
2023/06/04 10:04:08;;;;;;;2.33;1.10;;;21.00;60.20;;;;;;5113782;28;20110;-77
2023/06/04 10:06:35;;;;;;;3.13;0.80;;;21.00;60.40;;;;;;5113042;28;20066;-77
2023/06/04 10:09:06;;;;;;;4.10;1.30;;;21.20;59.70;;;;;;5112648;28;20073;-78
2023/06/04 10:11:44;;;;;;;2.53;1.05;;;21.20;59.10;;;;;;5113470;28;20036;-77
2023/06/04 10:14:20;;;;;;;2.38;0.88;;;21.30;56.90;;;;;;5111455;28;20107;-75
2023/06/04 10:16:47;;;;;;;1.85;0.90;;;21.40;57.10;;;;;;5110109;28;20078;-76
2023/06/04 10:19:14;;;;;;;2.20;1.02;;;21.50;57.30;;;;;;5112778;28;20027;-75
2023/06/04 10:21:40;;;;;;;1.17;0.98;;;21.60;56.50;;;;;;5112277;28;20055;-75
2023/06/04 10:24:05;;;;;;;2.85;1.23;;;21.60;57.70;;;;;;5110640;28;20059;-77
2023/06/04 10:26:34;;;;;;;3.30;1.00;;;21.60;56.40;;;;;;5112612;28;20102;-83
2023/06/04 10:29:02;;;;;;;2.45;1.20;;;21.70;55.40;;;;;;5108054;28;20052;-77
2023/06/04 10:31:27;;;;;;;3.13;1.00;;;21.80;56.00;;;;;;5105571;28;20515;-77
2023/06/04 10:33:54;;;;;;;3.38;0.88;;;21.80;55.60;;;;;;5113716;28;20024;-77
2023/06/04 10:36:22;;;;;;;2.92;1.02;;;21.90;55.10;;;;;;5114512;28;20047;-76
2023/06/04 10:38:51;;;;;;;1.80;1.20;;;22.00;55.60;;;;;;5113732;28;20028;-77
2023/06/04 10:41:18;;;;;;;2.95;1.20;;;22.00;55.50;;;;;;5112525;28;20055;-76
2023/06/04 10:44:00;;;;;;;3.55;1.30;;;22.10;54.80;;;;;;5112544;28;20027;-77
2023/06/04 10:46:36;;;;;;;2.75;1.15;;;22.10;54.00;;;;;;5110550;28;20024;-77
2023/06/04 10:49:02;;;;;;;2.83;1.13;;;22.20;54.10;;;;;;5113944;28;20084;-75
2023/06/04 10:51:37;;;;;;;2.38;1.05;;;22.30;53.40;;;;;;5109285;28;20474;-75
2023/06/04 10:54:03;;;;;;;3.53;1.30;;;22.40;52.30;;;;;;5112056;28;20027;-75
2023/06/04 10:56:31;;;;;;;2.15;1.00;;;22.40;52.60;;;;;;5110597;28;20110;-74
2023/06/04 10:58:58;;;;;;;2.75;1.13;;;22.50;52.40;;;;;;5116604;28;20016;-74
2023/06/04 11:01:31;;;;;;;2.75;1.33;;;22.50;52.40;;;;;;5111850;28;20035;-76
2023/06/04 11:03:57;;;;;;;2.00;1.30;;;22.50;53.60;;;;;;5116141;28;20023;-76
2023/06/04 11:06:27;;;;;;;3.83;1.08;;;22.60;53.30;;;;;;5116808;28;20468;-76
2023/06/04 11:09:16;;;;;;;1.67;1.00;;;22.70;53.20;;;;;;5114489;28;20090;-76
2023/06/04 11:11:41;;;;;;;1.90;1.13;;;22.70;53.40;;;;;;5104440;28;20082;-76
2023/06/04 11:14:09;;;;;;;2.63;1.13;;;22.70;52.80;;;;;;5099346;28;20032;-77
2023/06/04 11:16:34;;;;;;;1.63;1.00;;;22.90;52.90;;;;;;5096076;28;20028;-82
2023/06/04 11:19:00;;;;;;;3.47;1.00;;;22.90;52.90;;;;;;5097506;28;20074;-77
2023/06/04 11:21:25;;;;;;;6.65;1.30;;;23.10;52.50;;;;;;5096328;28;20032;-78
2023/06/04 11:24:01;;;;;;;2.78;1.33;;;23.10;52.60;;;;;;5116879;27;20464;-76
2023/06/04 11:26:33;;;;;;;3.13;1.02;;;23.10;52.20;;;;;;5132183;27;20023;-76
2023/06/04 11:29:00;;;;;;;1.55;0.82;;;23.20;51.00;;;;;;5118119;27;20016;-76
2023/06/04 11:31:26;;;;;;;1.15;1.00;;;23.20;51.90;;;;;;5118050;27;20048;-76
2023/06/04 11:33:51;;;;;;;2.75;1.17;;;23.30;50.70;;;;;;5112810;27;20043;-77
2023/06/04 11:36:28;;;;;;;2.38;1.20;;;23.40;51.70;;;;;;5114147;28;20421;-79
2023/06/04 11:38:58;;;;;;;3.92;1.60;;;23.50;51.90;;;;;;5116079;28;20034;-80
2023/06/04 11:41:31;;;;;;;5.15;1.25;;;23.70;51.80;;;;;;5107729;28;20082;-79
2023/06/04 11:44:01;;;;;;;2.50;1.10;;;23.70;51.30;;;;;;5115818;27;20026;-79
2023/06/04 11:46:27;;;;;;;2.80;1.10;;;23.60;50.00;;;;;;5117652;27;20417;-83
2023/06/04 11:48:53;;;;;;;4.78;1.92;;;23.60;51.40;;;;;;5113813;27;20020;-82
2023/06/04 11:51:20;;;;;;;3.40;1.33;;;23.60;50.10;;;;;;5125530;27;20031;-81
2023/06/04 11:53:46;;;;;;;1.60;1.13;;;23.70;49.50;;;;;;5118196;27;20115;-80
2023/06/04 11:56:12;;;;;;;3.90;1.35;;;23.80;50.90;;;;;;5121828;27;20484;-79
2023/06/04 11:58:40;;;;;;;3.05;1.23;;;23.90;51.70;;;;;;5129361;27;20464;-80
2023/06/04 12:01:07;;;;;;;3.03;1.17;;;23.90;51.20;;;;;;5125316;27;20027;-80
2023/06/04 12:03:42;;;;;;;2.97;1.30;;;24.00;51.40;;;;;;5121329;27;20016;-80
2023/06/04 12:06:16;;;;;;;1.63;1.10;;;24.10;50.60;;;;;;5117026;27;20430;-79
2023/06/04 12:08:53;;;;;;;1.80;1.38;;;24.10;51.30;;;;;;5127258;27;20020;-79
2023/06/04 12:11:27;;;;;;;4.63;1.38;;;24.30;50.80;;;;;;5128202;27;20118;-78
2023/06/04 12:13:58;;;;;;;2.88;1.40;;;24.30;49.50;;;;;;5119220;27;20028;-78
2023/06/04 12:16:24;;;;;;;2.65;1.50;;;24.30;49.00;;;;;;5111855;27;20054;-79
2023/06/04 12:18:50;;;;;;;4.45;1.30;;;24.40;49.60;;;;;;5118062;27;20027;-79
2023/06/04 12:21:27;;;;;;;1.95;1.50;;;24.40;49.80;;;;;;5117014;27;20031;-78
2023/06/04 12:24:10;;;;;;;2.55;1.40;;;24.40;48.50;;;;;;5113535;28;20030;-80
2023/06/04 12:26:43;;;;;;;2.25;1.42;;;24.40;49.60;;;;;;5106139;27;20030;-82
2023/06/04 12:29:19;;;;;;;1.20;1.10;;;24.50;50.20;;;;;;5125074;27;20096;-79
2023/06/04 12:31:46;;;;;;;3.42;1.75;;;24.50;50.50;;;;;;5131400;27;20027;-79
2023/06/04 12:34:13;;;;;;;3.00;1.50;;;24.60;51.20;;;;;;5118073;27;20111;-78
2023/06/04 12:36:40;;;;;;;3.67;1.55;;;24.70;50.70;;;;;;5129270;27;20034;-78
2023/06/04 12:39:06;;;;;;;2.95;1.48;;;24.70;50.40;;;;;;5124557;27;20016;-78
2023/06/04 12:41:36;;;;;;;4.47;1.50;;;24.80;50.80;;;;;;5130465;27;20116;-81
2023/06/04 12:44:02;;;;;;;2.67;1.52;;;24.90;49.50;;;;;;5118459;27;20023;-81
2023/06/04 12:46:28;;;;;;;3.78;1.52;;;24.90;50.60;;;;;;5124455;27;20026;-81
2023/06/04 12:48:54;;;;;;;4.63;1.40;;;25.00;50.20;;;;;;5126453;27;20111;-81